首页
METAR-TAF:

METAR-TAF

机场 :

布拉奇岛, 克罗地亚

纬度: 43-17-09N, 经度: 016-40-47E, 海拔: 541米

当前天气观测

该预报发布于2小时和34分钟前的18:30 UTC
风速11节,风向,在南转西南之间变化
温度 14°C
湿度 100%
气压 1006 hPa
能見度: 0050

METAR: LDSB 051830Z 17011KT 100V210 0050 FG VV001 14/14 Q1006

时间: 23:04 (21:04 UTC)

预报

该预报发布于3小时和32分钟前的17:32 UTC
预报有效从05日的 18点(UTC)到 06日的 18点(UTC)
风速12节,风向南转南东
能見度: 0100
层高于100英尺
几率 40% :
短暂存在
从 05日的 18点(UTC)到 06日的 01点(UTC)
多云层高于200英尺
几率 30% :
短暂存在
从 05日的 18点(UTC)到 05日的 21点(UTC)
能見度: 1200
多云层高于500英尺
轻雾
成为
从 06日的 02点(UTC)到 06日的 04点(UTC)
风速2节,风向多变
能见度10公里或以上
散云层高于1500英尺

TAF: LDSB 051732Z 0518/0618 15012KT 0100 FG VV001 TX22/0612Z TN13/0604Z PROB40 TEMPO 0518/0601 RA BKN002 PROB30 TEMPO 0518/0521 1200 BR BKN005 BECMG 0602/0604 VRB02KT 9999 NSW SCT015

超过4000个机场的气象观测和天气预报(METAR&TAF报告)。

可查询的气象台以黄色和红色小点在地图上表示。

将鼠标移到小点上方,可查看气象台名称。

然后点击查看天气观测和预报。

如需切换地图:点击带黑十字的绿色按钮放大地图;点击带横线的绿色按钮缩小地图;或者点击绿色箭头查看邻近地区的地图。


METAR-TAF: